createdAt,value
2022-09-28T00:01:07.907Z,98.60
2022-09-28T00:03:37.351Z,98.50
2022-09-28T00:06:06.683Z,98.30
2022-09-28T00:08:37.574Z,98.50
2022-09-28T00:11:06.729Z,98.40
2022-09-28T00:13:35.511Z,98.50
2022-09-28T00:16:03.511Z,98.50
2022-09-28T00:18:32.845Z,99.00
2022-09-28T00:21:09.157Z,98.60
2022-09-28T00:24:00.381Z,98.90
2022-09-28T00:26:28.970Z,98.70
2022-09-28T00:29:01.244Z,98.70
2022-09-28T00:31:31.966Z,98.70
2022-09-28T00:34:00.992Z,98.70
2022-09-28T00:36:29.899Z,98.80
2022-09-28T00:38:58.575Z,98.80
2022-09-28T00:41:27.682Z,99.10
2022-09-28T00:44:15.757Z,99.10
2022-09-28T00:46:43.840Z,99.10
2022-09-28T00:49:16.081Z,99.10
2022-09-28T00:51:44.944Z,99.00
2022-09-28T00:54:13.742Z,99.30
2022-09-28T00:56:42.641Z,99.20
2022-09-28T00:59:11.265Z,99.30
2022-09-28T01:01:39.260Z,99.50
2022-09-28T01:04:07.481Z,99.60
2022-09-28T01:06:36.413Z,99.50
2022-09-28T01:09:05.509Z,99.60
2022-09-28T01:11:35.380Z,99.60
2022-09-28T01:14:06.781Z,99.70
2022-09-28T01:16:38.726Z,99.70
2022-09-28T01:19:32.929Z,99.80
2022-09-28T01:22:19.643Z,99.90
2022-09-28T01:24:48.530Z,99.90
2022-09-28T01:27:19.590Z,99.90
2022-09-28T01:33:55.080Z,99.70
2022-09-28T01:36:25.694Z,99.90
2022-09-28T01:39:02.178Z,99.90
2022-09-28T01:41:34.781Z,99.90
2022-09-28T01:44:05.266Z,99.90
2022-09-28T01:46:36.556Z,99.90
2022-09-28T01:49:14.638Z,99.90
2022-09-28T01:51:45.869Z,99.90
2022-09-28T01:54:15.762Z,99.90
2022-09-28T01:56:52.642Z,99.90
2022-09-28T01:59:28.091Z,99.90
2022-09-28T02:02:02.979Z,99.90
2022-09-28T02:04:35.592Z,99.90
2022-09-28T02:07:10.607Z,99.90
2022-09-28T02:09:40.946Z,99.90
2022-09-28T02:12:24.712Z,99.90
2022-09-28T02:15:00.093Z,99.90
2022-09-28T02:17:28.414Z,99.90
2022-09-28T02:19:56.620Z,99.90
2022-09-28T02:22:57.265Z,99.90
2022-09-28T02:25:30.477Z,99.90
2022-09-28T02:28:02.767Z,99.90
2022-09-28T02:30:31.779Z,99.90
2022-09-28T02:33:05.829Z,99.90
2022-09-28T02:35:35.788Z,99.90
2022-09-28T02:38:06.772Z,99.90
2022-09-28T02:40:38.261Z,99.90
2022-09-28T02:43:24.100Z,99.90
2022-09-28T02:46:04.680Z,99.90
2022-09-28T02:49:00.156Z,99.90
2022-09-28T02:51:58.068Z,99.90
2022-09-28T02:54:44.735Z,99.90
2022-09-28T02:57:31.229Z,99.90
2022-09-28T03:00:02.517Z,99.90
2022-09-28T03:02:34.774Z,99.90
2022-09-28T03:05:21.884Z,99.90
2022-09-28T03:07:57.805Z,99.90
2022-09-28T03:10:32.376Z,99.90
2022-09-28T03:13:01.203Z,99.90
2022-09-28T03:15:30.696Z,99.90
2022-09-28T03:17:59.687Z,99.90
2022-09-28T03:20:31.647Z,99.90
2022-09-28T03:25:54.922Z,99.90
2022-09-28T03:28:23.712Z,99.90
2022-09-28T03:30:54.201Z,99.90
2022-09-28T03:33:27.729Z,99.90
2022-09-28T03:35:56.032Z,99.90
2022-09-28T03:38:27.621Z,99.90
2022-09-28T03:40:59.582Z,99.90
2022-09-28T03:43:32.047Z,99.90
2022-09-28T03:46:03.942Z,99.90
2022-09-28T03:48:36.608Z,99.90
2022-09-28T03:51:06.205Z,99.90
2022-09-28T03:53:36.866Z,99.90
2022-09-28T03:56:09.516Z,99.90
2022-09-28T03:58:37.877Z,99.90
2022-09-28T04:01:07.218Z,99.90
2022-09-28T04:03:35.555Z,99.90
2022-09-28T04:06:03.716Z,99.90
2022-09-28T04:08:32.035Z,99.90
2022-09-28T04:11:03.662Z,99.90
2022-09-28T04:13:34.873Z,99.90
2022-09-28T04:16:04.201Z,99.90
2022-09-28T04:18:35.585Z,99.90
2022-09-28T04:21:12.569Z,99.90
2022-09-28T04:23:47.519Z,99.90
2022-09-28T04:26:20.977Z,99.90
2022-09-28T04:29:08.198Z,99.90
2022-09-28T04:31:40.205Z,99.90
2022-09-28T04:34:08.987Z,99.90
2022-09-28T04:36:37.589Z,99.90
2022-09-28T04:39:05.980Z,99.90
2022-09-28T04:41:36.941Z,99.90
2022-09-28T04:44:07.608Z,99.90
2022-09-28T04:46:36.107Z,99.90
2022-09-28T04:49:23.094Z,99.90
2022-09-28T04:51:56.634Z,99.90
2022-09-28T04:54:24.962Z,99.90
2022-09-28T04:56:55.824Z,99.90
2022-09-28T04:59:28.847Z,99.90
2022-09-28T05:02:00.513Z,99.90
2022-09-28T05:04:47.139Z,99.90
2022-09-28T05:07:35.984Z,99.90
2022-09-28T05:10:06.972Z,99.90
2022-09-28T05:12:38.698Z,99.90
2022-09-28T05:15:06.964Z,99.90
2022-09-28T05:17:38.229Z,99.90
2022-09-28T05:20:31.191Z,99.90
2022-09-28T05:22:59.406Z,99.90
2022-09-28T05:25:29.985Z,99.90
2022-09-28T05:28:20.931Z,99.90
2022-09-28T05:31:12.298Z,99.90
2022-09-28T05:34:18.533Z,99.90
2022-09-28T05:36:52.388Z,99.30
2022-09-28T05:39:23.467Z,98.80
2022-09-28T05:41:51.765Z,98.00
2022-09-28T05:44:23.035Z,98.00
2022-09-28T05:46:55.082Z,97.90
2022-09-28T05:49:29.515Z,97.70
2022-09-28T05:51:57.912Z,97.50
2022-09-28T05:54:29.785Z,97.30
2022-09-28T05:57:01.178Z,96.80
2022-09-28T05:59:32.038Z,96.10
2022-09-28T06:02:03.515Z,95.30
2022-09-28T06:04:34.843Z,94.60
2022-09-28T06:07:03.805Z,94.00
2022-09-28T06:09:31.909Z,92.90
2022-09-28T06:12:02.853Z,92.00
2022-09-28T06:14:39.547Z,91.20
2022-09-28T06:17:10.130Z,90.40
2022-09-28T06:19:44.587Z,89.30
2022-09-28T06:22:36.506Z,87.80
2022-09-28T06:25:08.005Z,86.40
2022-09-28T06:27:36.324Z,85.50
2022-09-28T06:30:05.746Z,84.80
2022-09-28T06:32:34.054Z,84.20
2022-09-28T06:35:04.559Z,83.20
2022-09-28T06:37:36.042Z,81.90
2022-09-28T06:40:05.446Z,81.40
2022-09-28T06:42:35.770Z,81.20
2022-09-28T06:45:25.765Z,80.70
2022-09-28T06:48:18.011Z,80.20
2022-09-28T06:50:53.161Z,78.70
2022-09-28T06:53:32.876Z,78.30
2022-09-28T06:56:13.475Z,77.90
2022-09-28T06:58:41.610Z,77.80
2022-09-28T07:01:15.222Z,77.30
2022-09-28T07:04:02.247Z,76.70
2022-09-28T07:06:49.068Z,76.80
2022-09-28T07:09:40.314Z,75.60
2022-09-28T07:12:38.239Z,75.10
2022-09-28T07:15:29.741Z,73.40
2022-09-28T07:18:07.159Z,72.70
2022-09-28T07:20:51.468Z,71.50
2022-09-28T07:23:21.663Z,70.60
2022-09-28T07:26:10.953Z,69.10
2022-09-28T07:29:11.098Z,68.60
2022-09-28T07:32:01.875Z,68.00
2022-09-28T07:34:49.941Z,66.90
2022-09-28T07:37:38.886Z,66.10
2022-09-28T07:40:28.648Z,64.70
2022-09-28T07:43:09.109Z,64.40
2022-09-28T07:45:39.907Z,65.50
2022-09-28T07:48:16.639Z,62.10
2022-09-28T07:51:00.505Z,62.00
2022-09-28T07:53:35.099Z,61.30
2022-09-28T07:56:21.850Z,60.80
2022-09-28T07:59:01.536Z,59.60
2022-09-28T08:01:32.416Z,58.20
2022-09-28T08:04:02.031Z,56.90
2022-09-28T08:06:32.863Z,56.70
2022-09-28T08:09:02.181Z,56.70
2022-09-28T08:11:53.259Z,58.00
2022-09-28T08:14:39.161Z,58.70
2022-09-28T08:17:29.170Z,59.30
2022-09-28T08:20:22.005Z,62.70
2022-09-28T08:22:51.869Z,62.00
2022-09-28T08:25:21.565Z,60.50
2022-09-28T08:27:49.999Z,59.70
2022-09-28T08:30:24.414Z,59.60
2022-09-28T08:33:03.172Z,57.90
2022-09-28T08:35:43.456Z,58.20
2022-09-28T08:38:21.384Z,57.40
2022-09-28T08:41:17.413Z,55.70
2022-09-28T08:44:24.937Z,54.20
2022-09-28T08:47:43.624Z,52.40
2022-09-28T08:50:42.277Z,51.00
2022-09-28T08:53:39.172Z,50.10
2022-09-28T08:56:30.560Z,50.50
2022-09-28T08:59:03.832Z,53.00
2022-09-28T09:01:35.088Z,53.80
2022-09-28T09:04:10.288Z,52.90
2022-09-28T09:07:32.206Z,54.40
2022-09-28T09:10:40.168Z,55.70
2022-09-28T09:13:19.527Z,53.50
2022-09-28T09:15:58.003Z,50.90
2022-09-28T09:18:47.995Z,51.10
2022-09-28T09:21:41.774Z,53.70
2022-09-28T09:24:27.443Z,55.40
2022-09-28T09:27:07.660Z,57.40
2022-09-28T09:29:46.167Z,57.90
2022-09-28T09:32:22.920Z,55.30
2022-09-28T09:35:08.963Z,52.00
2022-09-28T09:38:28.843Z,47.90
2022-09-28T09:41:26.988Z,44.60
2022-09-28T09:44:30.558Z,44.30
2022-09-28T09:47:27.011Z,43.30
2022-09-28T09:50:08.507Z,45.50
2022-09-28T09:52:52.210Z,49.40
2022-09-28T09:55:29.954Z,52.10
2022-09-28T09:58:37.036Z,53.10
2022-09-28T10:01:43.423Z,54.80
2022-09-28T10:04:34.542Z,56.80
2022-09-28T10:07:19.281Z,55.90
2022-09-28T10:09:53.200Z,52.40
2022-09-28T10:12:36.833Z,51.50
2022-09-28T10:15:10.529Z,52.00
2022-09-28T10:17:52.194Z,50.60
2022-09-28T10:21:01.519Z,53.50
2022-09-28T10:23:46.090Z,53.00
2022-09-28T10:26:25.238Z,53.00
2022-09-28T10:28:57.518Z,54.80
2022-09-28T10:31:36.143Z,54.90
2022-09-28T10:34:07.349Z,53.20
2022-09-28T10:36:47.366Z,52.10
2022-09-28T10:39:34.643Z,50.30
2022-09-28T10:42:08.241Z,45.10
2022-09-28T10:44:49.281Z,42.70
2022-09-28T10:47:31.703Z,41.10
2022-09-28T10:50:02.258Z,45.60
2022-09-28T10:52:31.640Z,45.40
2022-09-28T10:55:02.718Z,47.40
2022-09-28T10:57:37.283Z,48.30
2022-09-28T11:00:28.145Z,45.70
2022-09-28T11:03:26.128Z,44.30
2022-09-28T11:06:01.275Z,42.60
2022-09-28T11:08:33.743Z,43.20
2022-09-28T11:11:14.218Z,43.50
2022-09-28T11:13:43.111Z,40.40
2022-09-28T11:16:20.378Z,39.20
2022-09-28T11:18:51.924Z,38.00
2022-09-28T11:21:26.066Z,39.20
2022-09-28T11:24:01.779Z,41.60
2022-09-28T11:26:41.374Z,45.80
2022-09-28T11:29:25.085Z,44.80
2022-09-28T11:32:15.676Z,42.90
2022-09-28T11:35:07.370Z,41.00
2022-09-28T11:37:53.939Z,40.00
2022-09-28T11:41:00.821Z,37.70
2022-09-28T11:43:52.075Z,37.80
2022-09-28T11:46:41.619Z,36.60
2022-09-28T11:49:32.127Z,34.70
2022-09-28T11:52:03.728Z,38.00
2022-09-28T11:54:36.758Z,38.00
2022-09-28T11:57:05.896Z,33.60
2022-09-28T11:59:52.006Z,34.80
2022-09-28T12:02:23.783Z,36.40
2022-09-28T12:05:05.366Z,35.70
2022-09-28T12:07:53.855Z,37.10
2022-09-28T12:10:58.490Z,39.00
2022-09-28T12:13:51.816Z,37.40
2022-09-28T12:19:23.432Z,33.90
2022-09-28T12:21:56.900Z,38.20
2022-09-28T12:24:28.048Z,35.90
2022-09-28T12:27:08.153Z,35.40
2022-09-28T12:29:48.194Z,35.90
2022-09-28T12:32:38.836Z,36.50
2022-09-28T12:35:16.368Z,36.40
2022-09-28T12:37:57.279Z,35.70
2022-09-28T12:40:48.549Z,35.70
2022-09-28T12:43:35.454Z,37.10
2022-09-28T12:46:14.806Z,39.20
2022-09-28T12:49:21.664Z,39.20
2022-09-28T12:51:45.454Z,39.10
2022-09-28T12:54:31.986Z,39.40
2022-09-28T12:57:03.274Z,38.70
2022-09-28T12:59:38.529Z,40.00
2022-09-28T13:02:27.869Z,38.10
2022-09-28T13:05:17.211Z,38.00
2022-09-28T13:08:04.330Z,36.90
2022-09-28T13:10:35.495Z,39.60
2022-09-28T13:13:18.767Z,39.60
2022-09-28T13:15:56.140Z,37.80
2022-09-28T13:18:42.812Z,37.80
2022-09-28T13:21:26.646Z,40.10
2022-09-28T13:24:08.671Z,39.10
2022-09-28T13:26:45.179Z,42.20
2022-09-28T13:29:17.291Z,40.50
2022-09-28T13:31:50.862Z,42.70
2022-09-28T13:34:21.025Z,43.70
2022-09-28T13:37:07.796Z,43.60
2022-09-28T13:39:40.561Z,43.60
2022-09-28T13:42:29.729Z,44.00
2022-09-28T13:45:09.825Z,43.50
2022-09-28T13:47:59.042Z,42.60
2022-09-28T13:50:29.970Z,41.50
2022-09-28T13:53:21.601Z,42.10
2022-09-28T13:55:49.588Z,43.30
2022-09-28T13:58:26.741Z,44.40
2022-09-28T14:01:04.073Z,45.50
2022-09-28T14:03:35.372Z,45.50
2022-09-28T14:06:06.412Z,45.30
2022-09-28T14:08:38.760Z,46.70
2022-09-28T14:11:25.053Z,48.00
2022-09-28T14:14:06.411Z,48.90
2022-09-28T14:16:48.680Z,49.60
2022-09-28T14:19:24.691Z,49.70
2022-09-28T14:22:01.536Z,48.60
2022-09-28T14:24:35.591Z,48.40
2022-09-28T14:27:22.463Z,48.00
2022-09-28T14:29:54.451Z,47.70
2022-09-28T14:32:24.117Z,48.10
2022-09-28T14:35:00.453Z,48.20
2022-09-28T14:37:52.122Z,49.70
2022-09-28T14:40:50.215Z,50.50
2022-09-28T14:43:28.874Z,52.20
2022-09-28T14:46:12.088Z,53.20
2022-09-28T14:49:02.049Z,53.70
2022-09-28T14:51:39.203Z,54.30
2022-09-28T14:54:13.334Z,54.80
2022-09-28T14:56:45.368Z,55.20
2022-09-28T14:59:25.184Z,55.70
2022-09-28T15:01:57.381Z,56.70
2022-09-28T15:04:28.486Z,56.60
2022-09-28T15:06:58.466Z,58.00
2022-09-28T15:09:29.960Z,57.70
2022-09-28T15:12:08.191Z,58.00
2022-09-28T15:14:43.900Z,58.40
2022-09-28T15:17:15.774Z,58.80
2022-09-28T15:19:54.880Z,59.10
2022-09-28T15:22:23.011Z,59.40
2022-09-28T15:25:02.452Z,59.70
2022-09-28T15:27:35.473Z,60.20
2022-09-28T15:30:19.333Z,60.70
2022-09-28T15:32:47.456Z,61.00
2022-09-28T15:35:23.164Z,61.90
2022-09-28T15:37:54.591Z,62.10
2022-09-28T15:40:43.259Z,62.40
2022-09-28T15:43:24.514Z,63.70
2022-09-28T15:46:03.154Z,63.10
2022-09-28T15:48:46.143Z,63.70
2022-09-28T15:51:14.646Z,64.10
2022-09-28T15:53:46.564Z,64.20
2022-09-28T15:56:17.644Z,64.70
2022-09-28T15:59:05.651Z,65.10
2022-09-28T16:01:41.120Z,65.70
2022-09-28T16:04:27.858Z,66.00
2022-09-28T16:07:11.080Z,66.30
2022-09-28T16:10:00.162Z,66.40
2022-09-28T16:12:35.185Z,66.60
2022-09-28T16:15:23.465Z,67.00
2022-09-28T16:18:01.017Z,67.20
2022-09-28T16:20:30.454Z,67.60
2022-09-28T16:23:10.970Z,67.70
2022-09-28T16:25:39.955Z,67.90
2022-09-28T16:28:26.477Z,67.90
2022-09-28T16:31:02.621Z,68.10
2022-09-28T16:33:41.149Z,68.30
2022-09-28T16:36:17.293Z,68.50
2022-09-28T16:38:45.838Z,69.00
2022-09-28T16:41:14.451Z,68.90
2022-09-28T16:43:44.732Z,69.00
2022-09-28T16:46:14.327Z,69.40
2022-09-28T16:48:49.951Z,69.30
2022-09-28T16:51:24.865Z,69.60
2022-09-28T16:54:18.524Z,70.00
2022-09-28T16:56:47.466Z,70.20
2022-09-28T16:59:16.043Z,70.40
2022-09-28T17:01:44.237Z,70.50
2022-09-28T17:12:59.884Z,70.80
2022-09-28T17:15:28.130Z,72.00
2022-09-28T17:17:58.498Z,72.50
2022-09-28T17:20:28.545Z,72.80
2022-09-28T17:22:59.873Z,73.10
2022-09-28T17:25:28.149Z,72.10
2022-09-28T17:27:57.694Z,71.90
2022-09-28T17:30:25.987Z,72.20
2022-09-28T17:32:56.759Z,72.60
2022-09-28T17:35:27.129Z,73.00
2022-09-28T17:37:59.326Z,73.70
2022-09-28T17:40:31.340Z,72.20
2022-09-28T17:49:15.074Z,72.80
2022-09-28T17:51:44.495Z,74.20
2022-09-28T17:54:13.944Z,74.70
2022-09-28T17:56:43.015Z,75.10
2022-09-28T17:59:13.794Z,75.20
2022-09-28T18:01:41.822Z,75.20
2022-09-28T18:04:19.077Z,73.50
2022-09-28T18:06:58.732Z,73.40
2022-09-28T18:09:29.930Z,73.70
2022-09-28T18:12:04.344Z,74.50
2022-09-28T18:14:32.388Z,75.30
2022-09-28T18:17:04.685Z,75.80
2022-09-28T18:19:35.837Z,76.20
2022-09-28T18:22:04.530Z,76.50
2022-09-28T18:24:32.825Z,76.90
2022-09-28T18:27:03.895Z,77.10
2022-09-28T18:29:33.626Z,77.10
2022-09-28T18:32:02.428Z,77.80
2022-09-28T18:34:35.515Z,78.10
2022-09-28T18:37:07.168Z,78.10
2022-09-28T18:39:38.722Z,78.20
2022-09-28T18:42:06.997Z,78.30
2022-09-28T18:44:34.992Z,78.70
2022-09-28T18:47:03.041Z,79.20
2022-09-28T18:49:32.044Z,79.50
2022-09-28T18:52:00.099Z,79.60
2022-09-28T18:54:28.636Z,79.80
2022-09-28T18:56:59.613Z,79.90
2022-09-28T18:59:27.825Z,79.90
2022-09-28T19:02:01.702Z,79.80
2022-09-28T19:04:41.738Z,80.30
2022-09-28T19:07:12.092Z,80.50
2022-09-28T19:09:44.319Z,80.50
2022-09-28T19:12:12.832Z,80.70
2022-09-28T19:14:46.382Z,81.00
2022-09-28T19:17:14.891Z,80.80
2022-09-28T19:19:43.109Z,81.40
2022-09-28T19:22:13.971Z,82.40
2022-09-28T19:24:42.091Z,81.60
2022-09-28T19:27:10.165Z,81.80
2022-09-28T19:29:40.891Z,82.20
2022-09-28T19:32:11.356Z,82.40
2022-09-28T19:34:40.554Z,82.40
2022-09-28T19:37:09.132Z,82.30
2022-09-28T19:39:39.789Z,82.70
2022-09-28T19:42:08.112Z,83.10
2022-09-28T19:44:37.652Z,83.40
2022-09-28T19:47:07.788Z,83.50
2022-09-28T19:49:37.468Z,83.60
2022-09-28T19:52:13.259Z,83.90
2022-09-28T19:54:57.225Z,83.80
2022-09-28T19:57:26.398Z,84.10
2022-09-28T19:59:59.314Z,84.30
2022-09-28T20:02:33.807Z,84.60
2022-09-28T20:05:01.992Z,84.70
2022-09-28T20:07:33.229Z,84.90
2022-09-28T20:10:04.173Z,85.00
2022-09-28T20:12:32.449Z,85.70
2022-09-28T20:15:03.403Z,85.80
2022-09-28T20:17:31.796Z,86.00
2022-09-28T20:19:59.789Z,85.90
2022-09-28T20:22:27.844Z,86.10
2022-09-28T20:24:55.915Z,86.60
2022-09-28T20:27:26.447Z,86.50
2022-09-28T20:29:56.702Z,87.30
2022-09-28T20:32:24.799Z,86.70
2022-09-28T20:34:52.896Z,86.80
2022-09-28T20:37:20.882Z,87.10
2022-09-28T20:39:52.591Z,87.00
2022-09-28T20:42:21.151Z,87.40
2022-09-28T20:44:52.274Z,87.40
2022-09-28T20:47:20.955Z,87.90
2022-09-28T20:49:48.865Z,87.70
2022-09-28T20:52:17.459Z,87.80
2022-09-28T20:54:48.143Z,88.10
2022-09-28T20:57:20.634Z,88.00
2022-09-28T20:59:53.651Z,88.20
2022-09-28T21:02:23.326Z,88.30
2022-09-28T21:04:54.485Z,88.10
2022-09-28T21:07:25.543Z,88.40
2022-09-28T21:09:55.862Z,88.80
2022-09-28T21:12:26.426Z,88.60
2022-09-28T21:14:54.541Z,88.80
2022-09-28T21:17:23.289Z,89.00
2022-09-28T21:19:52.495Z,89.00
2022-09-28T21:22:21.263Z,89.10
2022-09-28T21:24:49.354Z,89.30
2022-09-28T21:27:20.208Z,89.50
2022-09-28T21:29:48.254Z,89.50
2022-09-28T21:32:17.400Z,90.00
2022-09-28T21:34:50.762Z,90.20
2022-09-28T21:37:18.833Z,90.30
2022-09-28T21:39:47.594Z,90.40
2022-09-28T21:42:15.750Z,90.60
2022-09-28T21:44:46.254Z,90.90
2022-09-28T21:47:14.198Z,90.80
2022-09-28T21:49:42.415Z,90.90
2022-09-28T21:52:13.190Z,91.00
2022-09-28T21:54:44.126Z,90.90
2022-09-28T21:57:15.044Z,91.00
2022-09-28T21:59:43.497Z,91.00
2022-09-28T22:02:12.205Z,91.20
2022-09-28T22:04:43.030Z,91.30
2022-09-28T22:07:14.219Z,91.50
2022-09-28T22:09:45.260Z,91.50
2022-09-28T22:12:14.034Z,91.60
2022-09-28T22:14:44.579Z,91.70
2022-09-28T22:17:12.543Z,91.70
2022-09-28T22:19:43.103Z,91.80
2022-09-28T22:22:11.291Z,92.00
2022-09-28T22:24:39.176Z,92.10
2022-09-28T22:27:09.561Z,92.20
2022-09-28T22:29:39.903Z,92.10
2022-09-28T22:32:10.334Z,92.20
2022-09-28T22:34:40.889Z,92.30
2022-09-28T22:37:11.850Z,92.50
2022-09-28T22:39:42.755Z,92.50
2022-09-28T22:42:10.874Z,92.70
2022-09-28T22:44:40.854Z,92.60
2022-09-28T22:47:09.065Z,92.80
2022-09-28T22:49:37.206Z,92.70
2022-09-28T22:52:07.612Z,92.60
2022-09-28T22:54:38.052Z,92.80
2022-09-28T22:57:08.623Z,93.00
2022-09-28T22:59:36.533Z,93.00
2022-09-28T23:02:07.161Z,93.40
2022-09-28T23:04:35.333Z,93.40
2022-09-28T23:07:05.759Z,93.40
2022-09-28T23:09:33.795Z,93.60
2022-09-28T23:12:03.101Z,93.60
2022-09-28T23:14:31.174Z,93.80
2022-09-28T23:17:04.700Z,93.70
2022-09-28T23:19:35.561Z,93.90
2022-09-28T23:22:06.252Z,93.90
2022-09-28T23:24:38.335Z,94.00
2022-09-28T23:27:08.776Z,94.00
2022-09-28T23:29:46.453Z,94.00
2022-09-28T23:32:14.725Z,94.10
2022-09-28T23:34:44.265Z,94.30
2022-09-28T23:37:15.334Z,94.30
2022-09-28T23:39:46.541Z,94.60
2022-09-28T23:42:16.846Z,94.60
2022-09-28T23:44:47.237Z,94.50
2022-09-28T23:47:18.992Z,94.70
2022-09-28T23:49:49.708Z,94.80
2022-09-28T23:52:18.058Z,94.90
2022-09-28T23:54:46.006Z,95.10
2022-09-28T23:57:14.210Z,95.10
2022-09-28T23:59:42.384Z,95.10
